Kings Land O Lakes Airport


Codes: KLNL/
Name: Kings Land O Lakes Airport
City: Land O Lakes
Country: United States
Elevation: 1704 ft.

Photos at Kings Land O Lakes Airport


   Photos courtesy of SpottingLog. You can add your own sightings and photos by signing up for a free trial today.



No photos found.

Weather at Kings Land O Lakes Airport


Time (UTC)DescriptionTempratureWindCloud coverageVisibilityPressureHumidity
25-Jun-2024 15:00Light Rain20°C13 mph, NW88%10000m1003hPa83%
25-Jun-2024 18:00Broken Clouds24°C13 mph, NW55%10000m1004hPa50%
25-Jun-2024 21:00Clear Sky26°C13 mph, NW0%10000m1005hPa35%
26-Jun-2024 00:00Clear Sky23°C11 mph, W3%10000m1006hPa49%
26-Jun-2024 03:00Light Rain16°C7 mph, NW47%10000m1008hPa91%
26-Jun-2024 06:00Few Clouds12°C4 mph, NW22%10000m1009hPa88%
26-Jun-2024 09:00Clear Sky9°C4 mph, NE1%10000m1010hPa97%
26-Jun-2024 12:00Few Clouds9°C7 mph, N16%10000m1012hPa88%
26-Jun-2024 15:00Light Rain9°C7 mph, N98%10000m1014hPa93%
26-Jun-2024 18:00Overcast Clouds13°C9 mph, N96%10000m1014hPa76%
26-Jun-2024 21:00Scattered Clouds17°C11 mph, N33%10000m1013hPa49%
27-Jun-2024 00:00Few Clouds14°C7 mph, N17%10000m1014hPa61%
27-Jun-2024 03:00Clear Sky9°C2 mph, N3%10000m1015hPa91%
27-Jun-2024 06:00Scattered Clouds12°C2 mph, W29%10000m1015hPa77%
27-Jun-2024 09:00Overcast Clouds12°C4 mph, W100%10000m1015hPa74%
27-Jun-2024 12:00Broken Clouds12°C2 mph, NW73%10000m1016hPa82%
27-Jun-2024 15:00Clear Sky18°C2 mph, N0%10000m1015hPa48%
27-Jun-2024 18:00Few Clouds22°C0 mph, NW12%10000m1014hPa38%
27-Jun-2024 21:00Overcast Clouds21°C9 mph, SW100%10000m1012hPa44%
28-Jun-2024 00:00Overcast Clouds18°C7 mph, S100%10000m1012hPa69%
28-Jun-2024 03:00Overcast Clouds16°C9 mph, S97%10000m1010hPa74%
28-Jun-2024 06:00Light Rain15°C11 mph, S99%10000m1010hPa83%
28-Jun-2024 09:00Overcast Clouds15°C11 mph, S95%10000m1008hPa81%
28-Jun-2024 12:00Overcast Clouds15°C11 mph, S90%10000m1007hPa77%
28-Jun-2024 15:00Light Rain14°C13 mph, S100%10000m1004hPa96%
28-Jun-2024 18:00Light Rain16°C13 mph, S100%10000m1002hPa90%
28-Jun-2024 21:00Light Rain17°C9 mph, N100%0m1001hPa99%
29-Jun-2024 00:00Light Rain18°C9 mph, N100%0m1001hPa99%
29-Jun-2024 03:00Light Rain18°C7 mph, N100%0m1001hPa99%
29-Jun-2024 06:00Light Rain18°C7 mph, N100%0m1002hPa99%
29-Jun-2024 09:00Light Rain15°C9 mph, W65%10000m1002hPa97%
29-Jun-2024 12:00Scattered Clouds14°C11 mph, W48%10000m1004hPa95%
29-Jun-2024 15:00Light Rain15°C11 mph, W93%10000m1007hPa81%
29-Jun-2024 18:00Light Rain9°C13 mph, NW93%1068m1012hPa96%
29-Jun-2024 21:00Light Rain7°C11 mph, NW100%10000m1017hPa87%
30-Jun-2024 00:00Overcast Clouds7°C9 mph, N100%10000m1020hPa87%
30-Jun-2024 03:00Scattered Clouds5°C4 mph, NW36%10000m1023hPa94%
30-Jun-2024 06:00Few Clouds5°C4 mph, W23%10000m1024hPa93%
30-Jun-2024 09:00Scattered Clouds5°C4 mph, W33%10000m1026hPa92%
30-Jun-2024 12:00Few Clouds10°C4 mph, NW17%10000m1027hPa68%